PWSweather.com
Personal Weather Stations
Station Observations
KNVELKO7
Elko, NV 89801

Elko, NV 89801

Lat: 40.963233, Lon: -115.592836

Elevation: 5230

Station Type: WS-2812

High Low Average
Temperature 77.0°F25.0°C 24.1°F-4.4°C 49.2°F9.6°C
Dew Point 41.2°F5.1°C 17.9°F-7.8°C 29.4°F-1.4°C
Winds 6.6 mph 10.6 kmh Calm Calm 2.0 mph E3.2 kmh E
Wind Gusts 8.3 mph13.4 kmh -- 4.0 mph6.4 kmh
Humidity 82% 25% 51%
Pressure 30.39 in1029.1 mb 30.27 in1025.1 mb -
Precipitation 0.00 in0.0 mm - -
Hour Temp Dew Point Humidity Winds Wind Gusts Pressure Precip Precip Rate Daily Precip Total
12:01 AM 35.6°F2.0°C 23.6°F-4.7°C 61% Calm Calm 3.4 mph5.5 kmh 30.36 in1028.1 mb 0.00 in0.0 mm 0.00 in0.0 mm 0.00 in0.0 mm
12:06 AM 35.3°F1.8°C 23.2°F-4.9°C 61% 1.6 mph NNW2.6 kmh NNW 3.4 mph5.5 kmh 30.36 in1028.1 mb 0.00 in0.0 mm 0.00 in0.0 mm 0.00 in0.0 mm
12:11 AM 34.9°F1.6°C 23.2°F-4.9°C 62% 2.3 mph NNW3.7 kmh NNW 2.7 mph4.3 kmh 30.36 in1028.1 mb 0.00 in0.0 mm 0.00 in0.0 mm 0.00 in0.0 mm
12:16 AM 34.6°F1.4°C 22.5°F-5.3°C 61% 5.1 mph 8.2 kmh 5.4 mph8.7 kmh 30.37 in1028.4 mb 0.00 in0.0 mm 0.00 in0.0 mm 0.00 in0.0 mm
12:21 AM 34.9°F1.6°C 23.2°F-4.9°C 62% 4.3 mph 6.9 kmh 5.4 mph8.7 kmh 30.37 in1028.4 mb 0.00 in0.0 mm 0.00 in0.0 mm 0.00 in0.0 mm
12:26 AM 35.1°F1.7°C 23.8°F-4.6°C 63% 2.8 mph 4.5 kmh 5.4 mph8.7 kmh 30.37 in1028.4 mb 0.00 in0.0 mm 0.00 in0.0 mm 0.00 in0.0 mm
12:31 AM 35.1°F1.7°C 23.8°F-4.6°C 63% 2.8 mph NNE4.5 kmh NNE 4.7 mph7.6 kmh 30.36 in1028.1 mb 0.00 in0.0 mm 0.00 in0.0 mm 0.00 in0.0 mm
12:36 AM 34.9°F1.6°C 23.6°F-4.7°C 63% 3.1 mph ENE5.0 kmh ENE 4.7 mph7.6 kmh 30.36 in1028.1 mb 0.00 in0.0 mm 0.00 in0.0 mm 0.00 in0.0 mm
12:41 AM 34.7°F1.5°C 23.8°F-4.6°C 64% 1.3 mph ENE2.1 kmh ENE 3.8 mph6.1 kmh 30.36 in1028.1 mb 0.00 in0.0 mm 0.00 in0.0 mm 0.00 in0.0 mm
12:46 AM 34.7°F1.5°C 24.1°F-4.4°C 65% Calm Calm 3.4 mph5.5 kmh 30.36 in1028.1 mb 0.00 in0.0 mm 0.00 in0.0 mm 0.00 in0.0 mm
12:51 AM 34.4°F1.3°C 23.0°F-5.0°C 63% Calm Calm 0.2 mph0.3 kmh 30.36 in1028.1 mb 0.00 in0.0 mm 0.00 in0.0 mm 0.00 in0.0 mm
12:56 AM 33.8°F1.0°C 22.5°F-5.3°C 63% 0.8 mph ENE1.3 kmh ENE 1.3 mph2.1 kmh 30.36 in1028.1 mb 0.00 in0.0 mm 0.00 in0.0 mm 0.00 in0.0 mm
01:02 AM 33.3°F0.7°C 22.1°F-5.5°C 63% 0.2 mph NNE0.3 kmh NNE 1.3 mph2.1 kmh 30.36 in1028.1 mb 0.00 in0.0 mm 0.00 in0.0 mm 0.00 in0.0 mm
01:07 AM 32.8°F0.4°C 21.2°F-6.0°C 62% 2.3 mph 3.7 kmh 3.6 mph5.8 kmh 30.36 in1028.1 mb 0.00 in0.0 mm 0.00 in0.0 mm 0.00 in0.0 mm
01:12 AM 31.9°F-0.1°C 20.7°F-6.3°C 63% 2.0 mph 3.2 kmh 3.6 mph5.8 kmh 30.36 in1028.1 mb 0.00 in0.0 mm 0.00 in0.0 mm 0.00 in0.0 mm
01:17 AM 31.3°F-0.4°C 20.2°F-6.6°C 63% 2.8 mph 4.5 kmh 3.1 mph5.0 kmh 30.36 in1028.1 mb 0.00 in0.0 mm 0.00 in0.0 mm 0.00 in0.0 mm
01:21 AM 31.1°F-0.5°C 20.3°F-6.5°C 64% 2.3 mph 3.7 kmh 3.4 mph5.5 kmh 30.36 in1028.1 mb 0.00 in0.0 mm 0.00 in0.0 mm 0.00 in0.0 mm
01:26 AM 30.6°F-0.8°C 20.2°F-6.6°C 65% 1.5 mph 2.4 kmh 3.4 mph5.5 kmh 30.36 in1028.1 mb 0.00 in0.0 mm 0.00 in0.0 mm 0.00 in0.0 mm
01:31 AM 30.4°F-0.9°C 20.3°F-6.5°C 66% 2.1 mph NNW3.4 kmh NNW 3.8 mph6.1 kmh 30.36 in1028.1 mb 0.00 in0.0 mm 0.00 in0.0 mm 0.00 in0.0 mm
01:36 AM 30.1°F-1.1°C 20.0°F-6.7°C 66% 1.2 mph NNW1.9 kmh NNW 3.8 mph6.1 kmh 30.36 in1028.1 mb 0.00 in0.0 mm 0.00 in0.0 mm 0.00 in0.0 mm
01:41 AM 30.1°F-1.1°C 20.0°F-6.7°C 66% 2.8 mph 4.5 kmh 3.1 mph5.0 kmh 30.36 in1028.1 mb 0.00 in0.0 mm 0.00 in0.0 mm 0.00 in0.0 mm
01:46 AM 30.4°F-0.9°C 20.3°F-6.5°C 66% 3.8 mph NNE6.1 kmh NNE 4.9 mph7.9 kmh 30.36 in1028.1 mb 0.00 in0.0 mm 0.00 in0.0 mm 0.00 in0.0 mm
01:51 AM 30.6°F-0.8°C 20.9°F-6.2°C 67% 3.3 mph NNE5.3 kmh NNE 4.9 mph7.9 kmh 30.36 in1028.1 mb 0.00 in0.0 mm 0.00 in0.0 mm 0.00 in0.0 mm
01:56 AM 31.0°F-0.6°C 21.6°F-5.8°C 68% 0.9 mph NNE1.4 kmh NNE 4.3 mph6.9 kmh 30.36 in1028.1 mb 0.00 in0.0 mm 0.00 in0.0 mm 0.00 in0.0 mm
02:02 AM 31.1°F-0.5°C 21.8°F-5.7°C 68% 0.7 mph NNE1.1 kmh NNE 3.1 mph5.0 kmh 30.36 in1028.1 mb 0.00 in0.0 mm 0.00 in0.0 mm 0.00 in0.0 mm
02:07 AM 30.8°F-0.7°C 21.1°F-6.1°C 67% 1.8 mph N2.9 kmh N 2.7 mph4.3 kmh 30.36 in1028.1 mb 0.00 in0.0 mm 0.00 in0.0 mm 0.00 in0.0 mm
02:12 AM 30.8°F-0.7°C 21.4°F-5.9°C 68% 4.4 mph NE7.1 kmh NE 4.5 mph7.2 kmh 30.37 in1028.4 mb 0.00 in0.0 mm 0.00 in0.0 mm 0.00 in0.0 mm
02:17 AM 30.6°F-0.8°C 21.6°F-5.8°C 69% 2.0 mph NW3.2 kmh NW 4.5 mph7.2 kmh 30.37 in1028.4 mb 0.00 in0.0 mm 0.00 in0.0 mm 0.00 in0.0 mm
02:22 AM 30.4°F-0.9°C 21.4°F-5.9°C 69% Calm Calm 2.2 mph3.5 kmh 30.37 in1028.4 mb 0.00 in0.0 mm 0.00 in0.0 mm 0.00 in0.0 mm
02:27 AM 30.2°F-1.0°C 21.2°F-6.0°C 69% 0.2 mph ENE0.3 kmh ENE 1.8 mph2.9 kmh 30.37 in1028.4 mb 0.00 in0.0 mm 0.00 in0.0 mm 0.00 in0.0 mm
02:32 AM 29.9°F-1.2°C 20.9°F-6.2°C 69% Calm Calm 1.1 mph1.8 kmh 30.37 in1028.4 mb 0.00 in0.0 mm 0.00 in0.0 mm 0.00 in0.0 mm
02:37 AM 29.5°F-1.4°C 20.6°F-6.3°C 69% 1.5 mph E2.4 kmh E 1.6 mph2.6 kmh 30.38 in1028.8 mb 0.00 in0.0 mm 0.00 in0.0 mm 0.00 in0.0 mm
02:41 AM 29.3°F-1.5°C 20.8°F-6.2°C 70% 2.9 mph ENE4.7 kmh ENE 3.1 mph5.0 kmh 30.38 in1028.8 mb 0.00 in0.0 mm 0.00 in0.0 mm 0.00 in0.0 mm
02:46 AM 29.7°F-1.3°C 21.8°F-5.7°C 72% 3.7 mph ENE6.0 kmh ENE 4.0 mph6.4 kmh 30.38 in1028.8 mb 0.00 in0.0 mm 0.00 in0.0 mm 0.00 in0.0 mm
02:51 AM 29.9°F-1.2°C 21.6°F-5.8°C 71% 1.9 mph E3.1 kmh E 4.0 mph6.4 kmh 30.38 in1028.8 mb 0.00 in0.0 mm 0.00 in0.0 mm 0.00 in0.0 mm
02:56 AM 29.9°F-1.2°C 22.0°F-5.6°C 72% 1.8 mph ENE2.9 kmh ENE 2.9 mph4.7 kmh 30.38 in1028.8 mb 0.00 in0.0 mm 0.00 in0.0 mm 0.00 in0.0 mm
03:02 AM 30.1°F-1.1°C 22.1°F-5.5°C 72% 2.1 mph ESE3.4 kmh ESE 3.8 mph6.1 kmh 30.38 in1028.8 mb 0.00 in0.0 mm 0.00 in0.0 mm 0.00 in0.0 mm
03:07 AM 30.1°F-1.1°C 22.1°F-5.5°C 72% 1.3 mph ESE2.1 kmh ESE 3.8 mph6.1 kmh 30.38 in1028.8 mb 0.00 in0.0 mm 0.00 in0.0 mm 0.00 in0.0 mm
03:12 AM 30.1°F-1.1°C 22.1°F-5.5°C 72% 1.2 mph NE1.9 kmh NE 1.8 mph2.9 kmh 30.38 in1028.8 mb 0.00 in0.0 mm 0.00 in0.0 mm 0.00 in0.0 mm
03:17 AM 30.2°F-1.0°C 22.2°F-5.4°C 72% Calm Calm 1.8 mph2.9 kmh 30.38 in1028.8 mb 0.00 in0.0 mm 0.00 in0.0 mm 0.00 in0.0 mm
03:22 AM 30.2°F-1.0°C 22.6°F-5.2°C 73% 1.1 mph ENE1.8 kmh ENE 1.1 mph1.8 kmh 30.38 in1028.8 mb 0.00 in0.0 mm 0.00 in0.0 mm 0.00 in0.0 mm
03:27 AM 30.4°F-0.9°C 22.4°F-5.3°C 72% 1.8 mph NE2.9 kmh NE 2.5 mph4.0 kmh 30.38 in1028.8 mb 0.00 in0.0 mm 0.00 in0.0 mm 0.00 in0.0 mm
03:32 AM 30.4°F-0.9°C 22.8°F-5.1°C 73% Calm Calm 2.5 mph4.0 kmh 30.37 in1028.4 mb 0.00 in0.0 mm 0.00 in0.0 mm 0.00 in0.0 mm
03:37 AM 30.6°F-0.8°C 23.0°F-5.0°C 73% 0.2 mph NE0.3 kmh NE 0.7 mph1.1 kmh 30.37 in1028.4 mb 0.00 in0.0 mm 0.00 in0.0 mm 0.00 in0.0 mm
03:42 AM 30.4°F-0.9°C 22.8°F-5.1°C 73% 0.3 mph NE0.5 kmh NE 0.7 mph1.1 kmh 30.37 in1028.4 mb 0.00 in0.0 mm 0.00 in0.0 mm 0.00 in0.0 mm
03:47 AM 30.1°F-1.1°C 22.4°F-5.3°C 73% 2.3 mph E3.7 kmh E 2.9 mph4.7 kmh 30.38 in1028.8 mb 0.00 in0.0 mm 0.00 in0.0 mm 0.00 in0.0 mm
03:52 AM 29.9°F-1.2°C 22.6°F-5.2°C 74% 3.7 mph E6.0 kmh E 4.0 mph6.4 kmh 30.37 in1028.4 mb 0.00 in0.0 mm 0.00 in0.0 mm 0.00 in0.0 mm
03:57 AM 29.7°F-1.3°C 22.7°F-5.2°C 75% 2.3 mph ENE3.7 kmh ENE 4.0 mph6.4 kmh 30.37 in1028.4 mb 0.00 in0.0 mm 0.00 in0.0 mm 0.00 in0.0 mm
04:02 AM 29.5°F-1.4°C 22.5°F-5.3°C 75% 1.1 mph ENE1.8 kmh ENE 3.4 mph5.5 kmh 30.37 in1028.4 mb 0.00 in0.0 mm 0.00 in0.0 mm 0.00 in0.0 mm
04:07 AM 29.2°F-1.6°C 21.9°F-5.6°C 74% 0.8 mph ENE1.3 kmh ENE 3.4 mph5.5 kmh 30.37 in1028.4 mb 0.00 in0.0 mm 0.00 in0.0 mm 0.00 in0.0 mm
04:12 AM 29.0°F-1.7°C 21.7°F-5.7°C 74% 0.2 mph NNW0.3 kmh NNW 2.2 mph3.5 kmh 30.37 in1028.4 mb 0.00 in0.0 mm 0.00 in0.0 mm 0.00 in0.0 mm
04:17 AM 28.4°F-2.0°C 20.9°F-6.2°C 73% 0.2 mph NNW0.3 kmh NNW 0.9 mph1.4 kmh 30.36 in1028.1 mb 0.00 in0.0 mm 0.00 in0.0 mm 0.00 in0.0 mm
04:22 AM 27.9°F-2.3°C 20.3°F-6.5°C 73% 2.2 mph NE3.5 kmh NE 2.5 mph4.0 kmh 30.37 in1028.4 mb 0.00 in0.0 mm 0.00 in0.0 mm 0.00 in0.0 mm
04:27 AM 27.7°F-2.4°C 20.2°F-6.6°C 73% 3.8 mph 6.1 kmh 4.0 mph6.4 kmh 30.36 in1028.1 mb 0.00 in0.0 mm 0.00 in0.0 mm 0.00 in0.0 mm
04:32 AM 27.7°F-2.4°C 20.2°F-6.6°C 73% 3.9 mph N6.3 kmh N 4.7 mph7.6 kmh 30.36 in1028.1 mb 0.00 in0.0 mm 0.00 in0.0 mm 0.00 in0.0 mm
04:37 AM 27.9°F-2.3°C 20.7°F-6.3°C 74% 4.6 mph N7.4 kmh N 5.4 mph8.7 kmh 30.36 in1028.1 mb 0.00 in0.0 mm 0.00 in0.0 mm 0.00 in0.0 mm
04:42 AM 28.3°F-2.1°C 21.3°F-5.9°C 75% 5.2 mph N8.4 kmh N 5.4 mph8.7 kmh 30.36 in1028.1 mb 0.00 in0.0 mm 0.00 in0.0 mm 0.00 in0.0 mm
04:47 AM 28.1°F-2.2°C 21.2°F-6.0°C 75% 2.5 mph NE4.0 kmh NE 5.4 mph8.7 kmh 30.36 in1028.1 mb 0.00 in0.0 mm 0.00 in0.0 mm 0.00 in0.0 mm
04:52 AM 27.9°F-2.3°C 21.2°F-6.0°C 76% 3.6 mph ENE5.8 kmh ENE 4.5 mph7.2 kmh 30.36 in1028.1 mb 0.00 in0.0 mm 0.00 in0.0 mm 0.00 in0.0 mm
04:57 AM 28.1°F-2.2°C 21.2°F-6.0°C 75% 0.4 mph ENE0.6 kmh ENE 4.7 mph7.6 kmh 30.36 in1028.1 mb 0.00 in0.0 mm 0.00 in0.0 mm 0.00 in0.0 mm
05:03 AM 27.7°F-2.4°C 20.8°F-6.2°C 75% Calm Calm 4.7 mph7.6 kmh 30.36 in1028.1 mb 0.00 in0.0 mm 0.00 in0.0 mm 0.00 in0.0 mm
05:08 AM 27.2°F-2.7°C 20.3°F-6.5°C 75% 1.8 mph NNW2.9 kmh NNW 1.8 mph2.9 kmh 30.36 in1028.1 mb 0.00 in0.0 mm 0.00 in0.0 mm 0.00 in0.0 mm
05:13 AM 26.5°F-3.1°C 19.5°F-6.9°C 75% 2.0 mph NNW3.2 kmh NNW 2.9 mph4.7 kmh 30.36 in1028.1 mb 0.00 in0.0 mm 0.00 in0.0 mm 0.00 in0.0 mm
05:18 AM 25.9°F-3.4°C 19.0°F-7.2°C 75% 1.9 mph 3.1 kmh 2.9 mph4.7 kmh 30.36 in1028.1 mb 0.00 in0.0 mm 0.00 in0.0 mm 0.00 in0.0 mm
05:22 AM 25.9°F-3.4°C 19.0°F-7.2°C 75% 5.5 mph 8.9 kmh 6.3 mph10.1 kmh 30.36 in1028.1 mb 0.00 in0.0 mm 0.00 in0.0 mm 0.00 in0.0 mm
05:27 AM 25.9°F-3.4°C 19.0°F-7.2°C 75% 4.1 mph 6.6 kmh 7.6 mph12.2 kmh 30.36 in1028.1 mb 0.00 in0.0 mm 0.00 in0.0 mm 0.00 in0.0 mm
05:32 AM 25.9°F-3.4°C 19.4°F-7.0°C 76% 0.8 mph N1.3 kmh N 7.6 mph12.2 kmh 30.36 in1028.1 mb 0.00 in0.0 mm 0.00 in0.0 mm 0.00 in0.0 mm
05:37 AM 26.1°F-3.3°C 19.5°F-6.9°C 76% Calm Calm 1.8 mph2.9 kmh 30.36 in1028.1 mb 0.00 in0.0 mm 0.00 in0.0 mm 0.00 in0.0 mm
05:42 AM 26.1°F-3.3°C 19.8°F-6.8°C 77% Calm Calm -- 30.36 in1028.1 mb 0.00 in0.0 mm 0.00 in0.0 mm 0.00 in0.0 mm
05:47 AM 26.1°F-3.3°C 19.8°F-6.8°C 77% Calm Calm -- 30.36 in1028.1 mb 0.00 in0.0 mm 0.00 in0.0 mm 0.00 in0.0 mm
05:52 AM 25.9°F-3.4°C 19.6°F-6.9°C 77% Calm Calm -- 30.36 in1028.1 mb 0.00 in0.0 mm 0.00 in0.0 mm 0.00 in0.0 mm
05:57 AM 25.4°F-3.7°C 19.2°F-7.1°C 77% 0.6 mph W1.0 kmh W 2.0 mph3.2 kmh 30.36 in1028.1 mb 0.00 in0.0 mm 0.00 in0.0 mm 0.00 in0.0 mm
06:03 AM 25.0°F-3.9°C 18.5°F-7.5°C 76% 0.8 mph NNE1.3 kmh NNE 2.0 mph3.2 kmh 30.36 in1028.1 mb 0.00 in0.0 mm 0.00 in0.0 mm 0.00 in0.0 mm
06:08 AM 25.4°F-3.7°C 18.8°F-7.3°C 76% 3.3 mph N5.3 kmh N 3.4 mph5.5 kmh 30.36 in1028.1 mb 0.00 in0.0 mm 0.00 in0.0 mm 0.00 in0.0 mm
06:13 AM 25.6°F-3.6°C 19.4°F-7.0°C 77% 3.6 mph 5.8 kmh 4.0 mph6.4 kmh 30.36 in1028.1 mb 0.00 in0.0 mm 0.00 in0.0 mm 0.00 in0.0 mm
06:18 AM 25.6°F-3.6°C 19.4°F-7.0°C 77% 0.9 mph N1.4 kmh N 4.0 mph6.4 kmh 30.36 in1028.1 mb 0.00 in0.0 mm 0.00 in0.0 mm 0.00 in0.0 mm
06:23 AM 25.6°F-3.6°C 19.4°F-7.0°C 77% 0.2 mph 0.3 kmh 2.9 mph4.7 kmh 30.36 in1028.1 mb 0.00 in0.0 mm 0.00 in0.0 mm 0.00 in0.0 mm
06:28 AM 25.6°F-3.6°C 19.6°F-6.9°C 78% 0.3 mph NW0.5 kmh NW 1.6 mph2.6 kmh 30.36 in1028.1 mb 0.00 in0.0 mm 0.00 in0.0 mm 0.00 in0.0 mm
06:33 AM 25.2°F-3.8°C 19.3°F-7.1°C 78% 1.1 mph SW1.8 kmh SW 2.0 mph3.2 kmh 30.36 in1028.1 mb 0.00 in0.0 mm 0.00 in0.0 mm 0.00 in0.0 mm
06:38 AM 24.7°F-4.1°C 18.8°F-7.3°C 78% Calm Calm 2.0 mph3.2 kmh 30.36 in1028.1 mb 0.00 in0.0 mm 0.00 in0.0 mm 0.00 in0.0 mm
06:43 AM 24.3°F-4.3°C 18.1°F-7.7°C 77% 2.0 mph NE3.2 kmh NE 2.0 mph3.2 kmh 30.37 in1028.4 mb 0.00 in0.0 mm 0.00 in0.0 mm 0.00 in0.0 mm
06:48 AM 24.1°F-4.4°C 17.9°F-7.8°C 77% 4.4 mph NE7.1 kmh NE 5.4 mph8.7 kmh 30.37 in1028.4 mb 0.00 in0.0 mm 0.00 in0.0 mm 0.00 in0.0 mm
06:52 AM 24.3°F-4.3°C 18.5°F-7.5°C 78% 1.4 mph 2.3 kmh 5.4 mph8.7 kmh 30.36 in1028.1 mb 0.00 in0.0 mm 0.00 in0.0 mm 0.00 in0.0 mm
06:57 AM 24.5°F-4.2°C 18.6°F-7.4°C 78% 3.3 mph NNE5.3 kmh NNE 4.5 mph7.2 kmh 30.37 in1028.4 mb 0.00 in0.0 mm 0.00 in0.0 mm 0.00 in0.0 mm
07:03 AM 24.8°F-4.0°C 19.3°F-7.1°C 79% 2.2 mph ENE3.5 kmh ENE 4.5 mph7.2 kmh 30.37 in1028.4 mb 0.00 in0.0 mm 0.00 in0.0 mm 0.00 in0.0 mm
07:08 AM 25.0°F-3.9°C 19.4°F-7.0°C 79% 4.9 mph NE7.9 kmh NE 5.4 mph8.7 kmh 30.38 in1028.8 mb 0.00 in0.0 mm 0.00 in0.0 mm 0.00 in0.0 mm
07:13 AM 25.7°F-3.5°C 20.4°F-6.4°C 80% 5.3 mph NNE8.5 kmh NNE 5.4 mph8.7 kmh 30.38 in1028.8 mb 0.00 in0.0 mm 0.00 in0.0 mm 0.00 in0.0 mm
07:18 AM 26.5°F-3.1°C 21.1°F-6.1°C 80% 4.0 mph N6.4 kmh N 5.4 mph8.7 kmh 30.38 in1028.8 mb 0.00 in0.0 mm 0.00 in0.0 mm 0.00 in0.0 mm
07:23 AM 27.0°F-2.8°C 21.9°F-5.6°C 81% 2.3 mph NE3.7 kmh NE 4.5 mph7.2 kmh 30.38 in1028.8 mb 0.00 in0.0 mm 0.00 in0.0 mm 0.00 in0.0 mm
07:28 AM 27.7°F-2.4°C 22.6°F-5.2°C 81% 3.5 mph ENE5.6 kmh ENE 4.0 mph6.4 kmh 30.38 in1028.8 mb 0.00 in0.0 mm 0.00 in0.0 mm 0.00 in0.0 mm
07:33 AM 28.4°F-2.0°C 23.3°F-4.8°C 81% Calm Calm 4.0 mph6.4 kmh 30.38 in1028.8 mb 0.00 in0.0 mm 0.00 in0.0 mm 0.00 in0.0 mm
07:38 AM 28.8°F-1.8°C 23.7°F-4.6°C 81% Calm Calm 3.1 mph5.0 kmh 30.38 in1028.8 mb 0.00 in0.0 mm 0.00 in0.0 mm 0.00 in0.0 mm
07:43 AM 29.5°F-1.4°C 24.7°F-4.1°C 82% 0.4 mph ENE0.6 kmh ENE 0.7 mph1.1 kmh 30.38 in1028.8 mb 0.00 in0.0 mm 0.00 in0.0 mm 0.00 in0.0 mm
07:48 AM 30.1°F-1.1°C 24.9°F-3.9°C 81% 2.2 mph ESE3.5 kmh ESE 2.9 mph4.7 kmh 30.38 in1028.8 mb 0.00 in0.0 mm 0.00 in0.0 mm 0.00 in0.0 mm
07:53 AM 30.8°F-0.7°C 25.7°F-3.5°C 81% 3.1 mph ESE5.0 kmh ESE 4.3 mph6.9 kmh 30.38 in1028.8 mb 0.00 in0.0 mm 0.00 in0.0 mm 0.00 in0.0 mm
07:58 AM 31.3°F-0.4°C 26.2°F-3.2°C 81% 3.3 mph E5.3 kmh E 4.3 mph6.9 kmh 30.38 in1028.8 mb 0.00 in0.0 mm 0.00 in0.0 mm 0.00 in0.0 mm
08:03 AM 32.0°F0.0°C 26.9°F-2.8°C 81% 1.8 mph E2.9 kmh E 4.3 mph6.9 kmh 30.38 in1028.8 mb 0.00 in0.0 mm 0.00 in0.0 mm 0.00 in0.0 mm
08:08 AM 33.1°F0.6°C 27.9°F-2.3°C 81% 0.9 mph SE1.4 kmh SE 3.4 mph5.5 kmh 30.38 in1028.8 mb 0.00 in0.0 mm 0.00 in0.0 mm 0.00 in0.0 mm
08:13 AM 34.0°F1.1°C 29.0°F-1.7°C 82% 0.6 mph ESE1.0 kmh ESE 2.7 mph4.3 kmh 30.38 in1028.8 mb 0.00 in0.0 mm 0.00 in0.0 mm 0.00 in0.0 mm
08:18 AM 34.9°F1.6°C 29.6°F-1.3°C 81% Calm Calm 2.7 mph4.3 kmh 30.38 in1028.8 mb 0.00 in0.0 mm 0.00 in0.0 mm 0.00 in0.0 mm
08:23 AM 35.6°F2.0°C 30.1°F-1.1°C 80% 0.2 mph NNE0.3 kmh NNE 2.0 mph3.2 kmh 30.38 in1028.8 mb 0.00 in0.0 mm 0.00 in0.0 mm 0.00 in0.0 mm
08:28 AM 36.5°F2.5°C 31.0°F-0.6°C 80% 0.4 mph 0.6 kmh 2.0 mph3.2 kmh 30.38 in1028.8 mb 0.00 in0.0 mm 0.00 in0.0 mm 0.00 in0.0 mm
08:33 AM 37.4°F3.0°C 31.2°F-0.4°C 78% 1.6 mph NE2.6 kmh NE 3.1 mph5.0 kmh 30.38 in1028.8 mb 0.00 in0.0 mm 0.00 in0.0 mm 0.00 in0.0 mm
08:38 AM 38.3°F3.5°C 31.8°F-0.1°C 77% 3.3 mph E5.3 kmh E 4.7 mph7.6 kmh 30.38 in1028.8 mb 0.00 in0.0 mm 0.00 in0.0 mm 0.00 in0.0 mm
08:43 AM 39.2°F4.0°C 32.7°F0.4°C 77% 0.9 mph ENE1.4 kmh ENE 6.3 mph10.1 kmh 30.38 in1028.8 mb 0.00 in0.0 mm 0.00 in0.0 mm 0.00 in0.0 mm
08:48 AM 40.0°F4.4°C 32.9°F0.5°C 76% 1.7 mph NNE2.7 kmh NNE 6.3 mph10.1 kmh 30.38 in1028.8 mb 0.00 in0.0 mm 0.00 in0.0 mm 0.00 in0.0 mm
08:53 AM 40.9°F4.9°C 33.1°F0.6°C 74% 3.0 mph NE4.8 kmh NE 4.0 mph6.4 kmh 30.39 in1029.1 mb 0.00 in0.0 mm 0.00 in0.0 mm 0.00 in0.0 mm
08:58 AM 41.8°F5.4°C 33.8°F1.0°C 73% 0.2 mph ESE0.3 kmh ESE 4.0 mph6.4 kmh 30.39 in1029.1 mb 0.00 in0.0 mm 0.00 in0.0 mm 0.00 in0.0 mm
09:04 AM 42.5°F5.8°C 34.1°F1.2°C 72% 3.2 mph NE5.1 kmh NE 3.8 mph6.1 kmh 30.39 in1029.1 mb 0.00 in0.0 mm 0.00 in0.0 mm 0.00 in0.0 mm
09:09 AM 43.2°F6.2°C 34.5°F1.4°C 71% 1.0 mph ESE1.6 kmh ESE 3.4 mph5.5 kmh 30.39 in1029.1 mb 0.00 in0.0 mm 0.00 in0.0 mm 0.00 in0.0 mm
09:14 AM 44.1°F6.7°C 35.3°F1.8°C 71% 2.8 mph SE4.5 kmh SE 3.4 mph5.5 kmh 30.39 in1029.1 mb 0.00 in0.0 mm 0.00 in0.0 mm 0.00 in0.0 mm
09:18 AM 45.0°F7.2°C 35.8°F2.1°C 70% 2.2 mph SE3.5 kmh SE 4.0 mph6.4 kmh 30.39 in1029.1 mb 0.00 in0.0 mm 0.00 in0.0 mm 0.00 in0.0 mm
09:23 AM 45.7°F7.6°C 36.2°F2.3°C 69% 3.3 mph E5.3 kmh E 4.7 mph7.6 kmh 30.39 in1029.1 mb 0.00 in0.0 mm 0.00 in0.0 mm 0.00 in0.0 mm
09:28 AM 46.4°F8.0°C 36.5°F2.5°C 68% 3.3 mph ESE5.3 kmh ESE 4.7 mph7.6 kmh 30.39 in1029.1 mb 0.00 in0.0 mm 0.00 in0.0 mm 0.00 in0.0 mm
09:33 AM 47.3°F8.5°C 36.9°F2.7°C 67% 2.2 mph SE3.5 kmh SE 4.3 mph6.9 kmh 30.39 in1029.1 mb 0.00 in0.0 mm 0.00 in0.0 mm 0.00 in0.0 mm
09:38 AM 48.2°F9.0°C 37.0°F2.8°C 65% 3.5 mph E5.6 kmh E 4.3 mph6.9 kmh 30.38 in1028.8 mb 0.00 in0.0 mm 0.00 in0.0 mm 0.00 in0.0 mm
09:43 AM 49.0°F9.4°C 37.3°F2.9°C 64% 3.4 mph SE5.5 kmh SE 4.3 mph6.9 kmh 30.38 in1028.8 mb 0.00 in0.0 mm 0.00 in0.0 mm 0.00 in0.0 mm
09:48 AM 49.9°F9.9°C 38.2°F3.4°C 64% 3.3 mph E5.3 kmh E 4.7 mph7.6 kmh 30.38 in1028.8 mb 0.00 in0.0 mm 0.00 in0.0 mm 0.00 in0.0 mm
09:53 AM 50.8°F10.4°C 38.6°F3.7°C 63% 3.5 mph E5.6 kmh E 4.7 mph7.6 kmh 30.38 in1028.8 mb 0.00 in0.0 mm 0.00 in0.0 mm 0.00 in0.0 mm
09:58 AM 51.3°F10.7°C 38.3°F3.5°C 61% 2.1 mph E3.4 kmh E 5.4 mph8.7 kmh 30.38 in1028.8 mb 0.00 in0.0 mm 0.00 in0.0 mm 0.00 in0.0 mm
10:04 AM 52.2°F11.2°C 38.3°F3.5°C 59% 3.0 mph E4.8 kmh E 5.4 mph8.7 kmh 30.38 in1028.8 mb 0.00 in0.0 mm 0.00 in0.0 mm 0.00 in0.0 mm
10:09 AM 52.9°F11.6°C 37.6°F3.1°C 56% 4.0 mph E6.4 kmh E 5.1 mph8.2 kmh 30.38 in1028.8 mb 0.00 in0.0 mm 0.00 in0.0 mm 0.00 in0.0 mm
10:14 AM 53.3°F11.8°C 37.0°F2.8°C 54% 6.6 mph E10.6 kmh E 7.8 mph12.6 kmh 30.38 in1028.8 mb 0.00 in0.0 mm 0.00 in0.0 mm 0.00 in0.0 mm
10:19 AM 53.6°F12.0°C 37.4°F3.0°C 54% 5.1 mph E8.2 kmh E 7.8 mph12.6 kmh 30.38 in1028.8 mb 0.00 in0.0 mm 0.00 in0.0 mm 0.00 in0.0 mm
10:24 AM 54.5°F12.5°C 38.6°F3.7°C 55% 3.6 mph ESE5.8 kmh ESE 6.3 mph10.1 kmh 30.38 in1028.8 mb 0.00 in0.0 mm 0.00 in0.0 mm 0.00 in0.0 mm
10:29 AM 55.3°F12.9°C 38.4°F3.6°C 53% 4.9 mph SE7.9 kmh SE 7.2 mph11.6 kmh 30.38 in1028.8 mb 0.00 in0.0 mm 0.00 in0.0 mm 0.00 in0.0 mm
10:34 AM 56.0°F13.3°C 38.1°F3.4°C 51% 2.1 mph ESE3.4 kmh ESE 7.2 mph11.6 kmh 30.38 in1028.8 mb 0.00 in0.0 mm 0.00 in0.0 mm 0.00 in0.0 mm
10:39 AM 56.7°F13.7°C 39.8°F4.3°C 53% 4.2 mph SE6.8 kmh SE 7.4 mph11.9 kmh 30.38 in1028.8 mb 0.00 in0.0 mm 0.00 in0.0 mm 0.00 in0.0 mm
10:44 AM 57.6°F14.2°C 40.1°F4.5°C 52% 3.3 mph SE5.3 kmh SE 7.4 mph11.9 kmh 30.38 in1028.8 mb 0.00 in0.0 mm 0.00 in0.0 mm 0.00 in0.0 mm
10:48 AM 58.3°F14.6°C 38.7°F3.7°C 48% 3.7 mph ENE6.0 kmh ENE 5.6 mph9.0 kmh 30.37 in1028.4 mb 0.00 in0.0 mm 0.00 in0.0 mm 0.00 in0.0 mm
10:53 AM 58.1°F14.5°C 36.8°F2.7°C 45% 4.0 mph E6.4 kmh E 6.9 mph11.1 kmh 30.37 in1028.4 mb 0.00 in0.0 mm 0.00 in0.0 mm 0.00 in0.0 mm
10:58 AM 58.5°F14.7°C 37.7°F3.2°C 46% 4.3 mph E6.9 kmh E 6.9 mph11.1 kmh 30.37 in1028.4 mb 0.00 in0.0 mm 0.00 in0.0 mm 0.00 in0.0 mm
11:04 AM 58.9°F14.9°C 38.6°F3.7°C 47% 4.9 mph ESE7.9 kmh ESE 6.3 mph10.1 kmh 30.37 in1028.4 mb 0.00 in0.0 mm 0.00 in0.0 mm 0.00 in0.0 mm
11:09 AM 59.9°F15.5°C 38.4°F3.6°C 45% 2.8 mph ENE4.5 kmh ENE 6.3 mph10.1 kmh 30.37 in1028.4 mb 0.00 in0.0 mm 0.00 in0.0 mm 0.00 in0.0 mm
11:14 AM 60.5°F15.8°C 38.3°F3.5°C 44% 1.4 mph E2.3 kmh E 5.1 mph8.2 kmh 30.37 in1028.4 mb 0.00 in0.0 mm 0.00 in0.0 mm 0.00 in0.0 mm
11:19 AM 61.2°F16.2°C 36.7°F2.6°C 40% 6.3 mph E10.1 kmh E 6.7 mph10.8 kmh 30.37 in1028.4 mb 0.00 in0.0 mm 0.00 in0.0 mm 0.00 in0.0 mm
11:24 AM 61.2°F16.2°C 37.8°F3.2°C 42% 1.6 mph SSE2.6 kmh SSE 6.7 mph10.8 kmh 30.37 in1028.4 mb 0.00 in0.0 mm 0.00 in0.0 mm 0.00 in0.0 mm
11:29 AM 61.9°F16.6°C 39.1°F3.9°C 43% 1.8 mph S2.9 kmh S 3.1 mph5.0 kmh 30.37 in1028.4 mb 0.00 in0.0 mm 0.00 in0.0 mm 0.00 in0.0 mm
11:34 AM 62.3°F16.8°C 37.6°F3.1°C 40% 4.6 mph WSW7.4 kmh WSW 4.9 mph7.9 kmh 30.37 in1028.4 mb 0.00 in0.0 mm 0.00 in0.0 mm 0.00 in0.0 mm
11:39 AM 61.9°F16.6°C 37.4°F3.0°C 40% 3.5 mph WNW5.6 kmh WNW 4.9 mph7.9 kmh 30.36 in1028.1 mb 0.00 in0.0 mm 0.00 in0.0 mm 0.00 in0.0 mm
11:44 AM 61.2°F16.2°C 36.7°F2.6°C 40% 5.2 mph WSW8.4 kmh WSW 6.9 mph11.1 kmh 30.36 in1028.1 mb 0.00 in0.0 mm 0.00 in0.0 mm 0.00 in0.0 mm
11:49 AM 61.7°F16.5°C 37.7°F3.2°C 41% 3.3 mph ESE5.3 kmh ESE 6.9 mph11.1 kmh 30.36 in1028.1 mb 0.00 in0.0 mm 0.00 in0.0 mm 0.00 in0.0 mm
11:54 AM 63.0°F17.2°C 38.4°F3.6°C 40% 1.8 mph S2.9 kmh S 4.0 mph6.4 kmh 30.36 in1028.1 mb 0.00 in0.0 mm 0.00 in0.0 mm 0.00 in0.0 mm
11:59 AM 64.4°F18.0°C 39.6°F4.2°C 40% 1.7 mph ESE2.7 kmh ESE 5.4 mph8.7 kmh 30.36 in1028.1 mb 0.00 in0.0 mm 0.00 in0.0 mm 0.00 in0.0 mm
12:04 PM 65.9°F18.8°C 40.1°F4.5°C 39% 4.4 mph SSE7.1 kmh SSE 5.4 mph8.7 kmh 30.36 in1028.1 mb 0.00 in0.0 mm 0.00 in0.0 mm 0.00 in0.0 mm
12:09 PM 67.0°F19.4°C 41.1°F5.1°C 39% 2.6 mph SSE4.2 kmh SSE 5.4 mph8.7 kmh 30.36 in1028.1 mb 0.00 in0.0 mm 0.00 in0.0 mm 0.00 in0.0 mm
12:14 PM 67.7°F19.8°C 41.0°F5.0°C 38% 0.9 mph SE1.4 kmh SE 3.4 mph5.5 kmh 30.36 in1028.1 mb 0.00 in0.0 mm 0.00 in0.0 mm 0.00 in0.0 mm
12:19 PM 67.9°F19.9°C 41.2°F5.1°C 38% 1.0 mph SE1.6 kmh SE 3.1 mph5.0 kmh 30.36 in1028.1 mb 0.00 in0.0 mm 0.00 in0.0 mm 0.00 in0.0 mm
12:24 PM 67.5°F19.7°C 38.7°F3.7°C 35% 6.0 mph WSW9.7 kmh WSW 7.2 mph11.6 kmh 30.36 in1028.1 mb 0.00 in0.0 mm 0.00 in0.0 mm 0.00 in0.0 mm
12:29 PM 66.8°F19.3°C 38.8°F3.8°C 36% 3.8 mph SSW6.1 kmh SSW 7.2 mph11.6 kmh 30.36 in1028.1 mb 0.00 in0.0 mm 0.00 in0.0 mm 0.00 in0.0 mm
12:34 PM 67.5°F19.7°C 38.7°F3.7°C 35% 4.7 mph SW7.6 kmh SW 5.8 mph9.3 kmh 30.36 in1028.1 mb 0.00 in0.0 mm 0.00 in0.0 mm 0.00 in0.0 mm
12:39 PM 67.5°F19.7°C 38.7°F3.7°C 35% 4.7 mph SW7.6 kmh SW 8.3 mph13.4 kmh 30.36 in1028.1 mb 0.00 in0.0 mm 0.00 in0.0 mm 0.00 in0.0 mm
12:44 PM 67.5°F19.7°C 38.7°F3.7°C 35% 3.7 mph SW6.0 kmh SW 8.3 mph13.4 kmh 30.35 in1027.8 mb 0.00 in0.0 mm 0.00 in0.0 mm 0.00 in0.0 mm
12:49 PM 67.0°F19.4°C 37.5°F3.1°C 34% 4.3 mph WSW6.9 kmh WSW 6.9 mph11.1 kmh 30.35 in1027.8 mb 0.00 in0.0 mm 0.00 in0.0 mm 0.00 in0.0 mm
12:54 PM 67.0°F19.4°C 37.5°F3.1°C 34% 3.4 mph SW5.5 kmh SW 4.9 mph7.9 kmh 30.35 in1027.8 mb 0.00 in0.0 mm 0.00 in0.0 mm 0.00 in0.0 mm
01:00 PM 68.0°F20.0°C 39.2°F4.0°C 35% 3.2 mph S5.1 kmh S 6.3 mph10.1 kmh 30.35 in1027.8 mb 0.00 in0.0 mm 0.00 in0.0 mm 0.00 in0.0 mm
01:05 PM 69.3°F20.7°C 39.5°F4.2°C 34% 2.0 mph S3.2 kmh S 6.3 mph10.1 kmh 30.35 in1027.8 mb 0.00 in0.0 mm 0.00 in0.0 mm 0.00 in0.0 mm
01:10 PM 70.6°F21.4°C 40.7°F4.8°C 34% 3.2 mph ESE5.1 kmh ESE 4.7 mph7.6 kmh 30.34 in1027.4 mb 0.00 in0.0 mm 0.00 in0.0 mm 0.00 in0.0 mm
01:15 PM 71.5°F21.9°C 40.8°F4.9°C 33% 2.2 mph S3.5 kmh S 4.7 mph7.6 kmh 30.34 in1027.4 mb 0.00 in0.0 mm 0.00 in0.0 mm 0.00 in0.0 mm
01:20 PM 70.2°F21.2°C 38.9°F3.8°C 32% 4.9 mph 7.9 kmh 6.7 mph10.8 kmh 30.34 in1027.4 mb 0.00 in0.0 mm 0.00 in0.0 mm 0.00 in0.0 mm
01:25 PM 68.4°F20.2°C 36.6°F2.6°C 31% 2.0 mph NNW3.2 kmh NNW 6.7 mph10.8 kmh 30.34 in1027.4 mb 0.00 in0.0 mm 0.00 in0.0 mm 0.00 in0.0 mm
01:29 PM 67.9°F19.9°C 36.8°F2.7°C 32% 0.2 mph NW0.3 kmh NW 5.6 mph9.0 kmh 30.34 in1027.4 mb 0.00 in0.0 mm 0.00 in0.0 mm 0.00 in0.0 mm
01:34 PM 68.2°F20.1°C 37.1°F2.8°C 32% 2.7 mph E4.3 kmh E 4.5 mph7.2 kmh 30.33 in1027.1 mb 0.00 in0.0 mm 0.00 in0.0 mm 0.00 in0.0 mm
01:39 PM 68.2°F20.1°C 36.4°F2.4°C 31% 3.0 mph N4.8 kmh N 4.7 mph7.6 kmh 30.33 in1027.1 mb 0.00 in0.0 mm 0.00 in0.0 mm 0.00 in0.0 mm
01:44 PM 68.9°F20.5°C 38.5°F3.6°C 33% 2.0 mph NE3.2 kmh NE 4.7 mph7.6 kmh 30.33 in1027.1 mb 0.00 in0.0 mm 0.00 in0.0 mm 0.00 in0.0 mm
01:49 PM 69.1°F20.6°C 37.2°F2.9°C 31% 2.4 mph E3.9 kmh E 4.7 mph7.6 kmh 30.33 in1027.1 mb 0.00 in0.0 mm 0.00 in0.0 mm 0.00 in0.0 mm
01:54 PM 69.8°F21.0°C 38.5°F3.6°C 32% 3.9 mph S6.3 kmh S 6.9 mph11.1 kmh 30.33 in1027.1 mb 0.00 in0.0 mm 0.00 in0.0 mm 0.00 in0.0 mm
02:00 PM 70.6°F21.4°C 38.4°F3.6°C 31% 5.7 mph SW9.2 kmh SW 6.9 mph11.1 kmh 30.33 in1027.1 mb 0.00 in0.0 mm 0.00 in0.0 mm 0.00 in0.0 mm
02:05 PM 71.1°F21.7°C 39.7°F4.3°C 32% 2.6 mph SE4.2 kmh SE 6.5 mph10.5 kmh 30.32 in1026.8 mb 0.00 in0.0 mm 0.00 in0.0 mm 0.00 in0.0 mm
02:10 PM 72.4°F22.4°C 39.2°F4.0°C 30% 1.7 mph E2.7 kmh E 5.1 mph8.2 kmh 30.32 in1026.8 mb 0.00 in0.0 mm 0.00 in0.0 mm 0.00 in0.0 mm
02:15 PM 72.5°F22.5°C 38.4°F3.6°C 29% 3.6 mph ENE5.8 kmh ENE 5.1 mph8.2 kmh 30.32 in1026.8 mb 0.00 in0.0 mm 0.00 in0.0 mm 0.00 in0.0 mm
02:20 PM 72.2°F22.3°C 38.1°F3.4°C 29% 5.1 mph ENE8.2 kmh ENE 5.6 mph9.0 kmh 30.31 in1026.4 mb 0.00 in0.0 mm 0.00 in0.0 mm 0.00 in0.0 mm
02:25 PM 72.0°F22.2°C 38.0°F3.3°C 29% 3.5 mph ESE5.6 kmh ESE 5.6 mph9.0 kmh 30.31 in1026.4 mb 0.00 in0.0 mm 0.00 in0.0 mm 0.00 in0.0 mm
02:30 PM 73.3°F22.9°C 40.0°F4.4°C 30% 3.7 mph ESE6.0 kmh ESE 4.9 mph7.9 kmh 30.31 in1026.4 mb 0.00 in0.0 mm 0.00 in0.0 mm 0.00 in0.0 mm
02:35 PM 74.5°F23.6°C 40.1°F4.5°C 29% 2.2 mph SW3.5 kmh SW 4.7 mph7.6 kmh 30.30 in1026.1 mb 0.00 in0.0 mm 0.00 in0.0 mm 0.00 in0.0 mm
02:40 PM 75.1°F23.9°C 39.5°F4.2°C 28% 6.1 mph SSW9.8 kmh SSW 6.5 mph10.5 kmh 30.30 in1026.1 mb 0.00 in0.0 mm 0.00 in0.0 mm 0.00 in0.0 mm
02:45 PM 75.6°F24.2°C 40.1°F4.5°C 28% 5.3 mph SSW8.5 kmh SSW 6.5 mph10.5 kmh 30.30 in1026.1 mb 0.00 in0.0 mm 0.00 in0.0 mm 0.00 in0.0 mm
02:50 PM 75.8°F24.3°C 40.1°F4.5°C 28% 0.6 mph SSW1.0 kmh SSW 7.4 mph11.9 kmh 30.30 in1026.1 mb 0.00 in0.0 mm 0.00 in0.0 mm 0.00 in0.0 mm
02:55 PM 76.1°F24.5°C 40.5°F4.7°C 28% 2.2 mph S3.5 kmh S 7.4 mph11.9 kmh 30.30 in1026.1 mb 0.00 in0.0 mm 0.00 in0.0 mm 0.00 in0.0 mm
03:00 PM 76.1°F24.5°C 39.5°F4.2°C 27% 2.1 mph SE3.4 kmh SE 3.6 mph5.8 kmh 30.30 in1026.1 mb 0.00 in0.0 mm 0.00 in0.0 mm 0.00 in0.0 mm
03:05 PM 75.6°F24.2°C 38.0°F3.3°C 26% 0.8 mph SSE1.3 kmh SSE 3.6 mph5.8 kmh 30.30 in1026.1 mb 0.00 in0.0 mm 0.00 in0.0 mm 0.00 in0.0 mm
03:10 PM 75.8°F24.3°C 40.1°F4.5°C 28% 1.5 mph SW2.4 kmh SW 1.8 mph2.9 kmh 30.29 in1025.7 mb 0.00 in0.0 mm 0.00 in0.0 mm 0.00 in0.0 mm
03:15 PM 76.1°F24.5°C 39.5°F4.2°C 27% 3.3 mph SE5.3 kmh SE 3.6 mph5.8 kmh 30.29 in1025.7 mb 0.00 in0.0 mm 0.00 in0.0 mm 0.00 in0.0 mm
03:20 PM 76.7°F24.8°C 40.0°F4.4°C 27% 5.5 mph SE8.9 kmh SE 6.5 mph10.5 kmh 30.29 in1025.7 mb 0.00 in0.0 mm 0.00 in0.0 mm 0.00 in0.0 mm
03:25 PM 76.7°F24.8°C 38.9°F3.8°C 26% 0.3 mph E0.5 kmh E 6.5 mph10.5 kmh 30.29 in1025.7 mb 0.00 in0.0 mm 0.00 in0.0 mm 0.00 in0.0 mm
03:30 PM 76.5°F24.7°C 38.7°F3.7°C 26% 4.9 mph E7.9 kmh E 6.0 mph9.7 kmh 30.29 in1025.7 mb 0.00 in0.0 mm 0.00 in0.0 mm 0.00 in0.0 mm
03:35 PM 76.9°F24.9°C 39.1°F3.9°C 26% 2.3 mph SSE3.7 kmh SSE 6.0 mph9.7 kmh 30.29 in1025.7 mb 0.00 in0.0 mm 0.00 in0.0 mm 0.00 in0.0 mm
03:40 PM 77.0°F25.0°C 39.3°F4.1°C 26% 1.9 mph ENE3.1 kmh ENE 5.8 mph9.3 kmh 30.29 in1025.7 mb 0.00 in0.0 mm 0.00 in0.0 mm 0.00 in0.0 mm
03:45 PM 76.1°F24.5°C 37.4°F3.0°C 25% 1.7 mph S2.7 kmh S 3.8 mph6.1 kmh 30.29 in1025.7 mb 0.00 in0.0 mm 0.00 in0.0 mm 0.00 in0.0 mm
03:50 PM 76.3°F24.6°C 38.6°F3.7°C 26% 1.1 mph SSW1.8 kmh SSW 3.4 mph5.5 kmh 30.28 in1025.4 mb 0.00 in0.0 mm 0.00 in0.0 mm 0.00 in0.0 mm
03:55 PM 76.1°F24.5°C 38.4°F3.6°C 26% 1.9 mph SE3.1 kmh SE 3.1 mph5.0 kmh 30.28 in1025.4 mb 0.00 in0.0 mm 0.00 in0.0 mm 0.00 in0.0 mm
04:00 PM 76.3°F24.6°C 37.5°F3.1°C 25% 3.1 mph NW5.0 kmh NW 4.7 mph7.6 kmh 30.28 in1025.4 mb 0.00 in0.0 mm 0.00 in0.0 mm 0.00 in0.0 mm
04:05 PM 75.1°F23.9°C 36.5°F2.5°C 25% 2.5 mph S4.0 kmh S 5.4 mph8.7 kmh 30.28 in1025.4 mb 0.00 in0.0 mm 0.00 in0.0 mm 0.00 in0.0 mm
04:10 PM 75.2°F24.0°C 37.6°F3.1°C 26% 2.3 mph ESE3.7 kmh ESE 5.4 mph8.7 kmh 30.28 in1025.4 mb 0.00 in0.0 mm 0.00 in0.0 mm 0.00 in0.0 mm
04:15 PM 75.2°F24.0°C 36.6°F2.6°C 25% 2.8 mph NNW4.5 kmh NNW 4.5 mph7.2 kmh 30.28 in1025.4 mb 0.00 in0.0 mm 0.00 in0.0 mm 0.00 in0.0 mm
04:20 PM 74.3°F23.5°C 35.8°F2.1°C 25% 1.0 mph 1.6 kmh 4.0 mph6.4 kmh 30.28 in1025.4 mb 0.00 in0.0 mm 0.00 in0.0 mm 0.00 in0.0 mm
04:25 PM 74.3°F23.5°C 36.9°F2.7°C 26% 1.7 mph SE2.7 kmh SE 3.6 mph5.8 kmh 30.28 in1025.4 mb 0.00 in0.0 mm 0.00 in0.0 mm 0.00 in0.0 mm
04:30 PM 75.2°F24.0°C 37.6°F3.1°C 26% 0.6 mph E1.0 kmh E 2.9 mph4.7 kmh 30.28 in1025.4 mb 0.00 in0.0 mm 0.00 in0.0 mm 0.00 in0.0 mm
04:35 PM 75.8°F24.3°C 38.2°F3.4°C 26% 1.5 mph SE2.4 kmh SE 6.3 mph10.1 kmh 30.28 in1025.4 mb 0.00 in0.0 mm 0.00 in0.0 mm 0.00 in0.0 mm
04:40 PM 76.0°F24.4°C 37.3°F2.9°C 25% 3.2 mph E5.1 kmh E 6.9 mph11.1 kmh 30.28 in1025.4 mb 0.00 in0.0 mm 0.00 in0.0 mm 0.00 in0.0 mm
04:45 PM 75.6°F24.2°C 36.9°F2.7°C 25% 1.6 mph SSE2.6 kmh SSE 6.9 mph11.1 kmh 30.28 in1025.4 mb 0.00 in0.0 mm 0.00 in0.0 mm 0.00 in0.0 mm
04:50 PM 75.4°F24.1°C 36.8°F2.7°C 25% 4.6 mph SW7.4 kmh SW 6.0 mph9.7 kmh 30.27 in1025.1 mb 0.00 in0.0 mm 0.00 in0.0 mm 0.00 in0.0 mm
04:55 PM 74.9°F23.8°C 36.4°F2.4°C 25% 2.5 mph S4.0 kmh S 6.0 mph9.7 kmh 30.27 in1025.1 mb 0.00 in0.0 mm 0.00 in0.0 mm 0.00 in0.0 mm
05:01 PM 74.9°F23.8°C 37.4°F3.0°C 26% 0.3 mph ESE0.5 kmh ESE 5.8 mph9.3 kmh 30.27 in1025.1 mb 0.00 in0.0 mm 0.00 in0.0 mm 0.00 in0.0 mm
05:06 PM 73.8°F23.2°C 35.4°F1.9°C 25% 1.9 mph NNE3.1 kmh NNE 5.8 mph9.3 kmh 30.28 in1025.4 mb 0.00 in0.0 mm 0.00 in0.0 mm 0.00 in0.0 mm
05:11 PM 72.9°F22.7°C 34.7°F1.5°C 25% 1.7 mph N2.7 kmh N 3.4 mph5.5 kmh 30.27 in1025.1 mb 0.00 in0.0 mm 0.00 in0.0 mm 0.00 in0.0 mm
05:16 PM 72.7°F22.6°C 35.5°F1.9°C 26% 0.6 mph NE1.0 kmh NE 2.5 mph4.0 kmh 30.27 in1025.1 mb 0.00 in0.0 mm 0.00 in0.0 mm 0.00 in0.0 mm
05:21 PM 72.5°F22.5°C 35.4°F1.9°C 26% 3.5 mph ENE5.6 kmh ENE 4.9 mph7.9 kmh 30.27 in1025.1 mb 0.00 in0.0 mm 0.00 in0.0 mm 0.00 in0.0 mm
05:26 PM 72.4°F22.4°C 35.2°F1.8°C 26% 1.8 mph ESE2.9 kmh ESE 4.9 mph7.9 kmh 30.27 in1025.1 mb 0.00 in0.0 mm 0.00 in0.0 mm 0.00 in0.0 mm
05:31 PM 72.7°F22.6°C 35.5°F1.9°C 26% 0.6 mph SE1.0 kmh SE 3.6 mph5.8 kmh 30.27 in1025.1 mb 0.00 in0.0 mm 0.00 in0.0 mm 0.00 in0.0 mm
05:35 PM 73.1°F22.8°C 35.8°F2.1°C 26% 2.1 mph SE3.4 kmh SE 2.9 mph4.7 kmh 30.27 in1025.1 mb 0.00 in0.0 mm 0.00 in0.0 mm 0.00 in0.0 mm
05:40 PM 73.4°F23.0°C 36.1°F2.3°C 26% 2.3 mph S3.7 kmh S 4.0 mph6.4 kmh 30.27 in1025.1 mb 0.00 in0.0 mm 0.00 in0.0 mm 0.00 in0.0 mm
05:45 PM 73.3°F22.9°C 36.0°F2.2°C 26% 1.7 mph WSW2.7 kmh WSW 4.0 mph6.4 kmh 30.27 in1025.1 mb 0.00 in0.0 mm 0.00 in0.0 mm 0.00 in0.0 mm
05:50 PM 73.3°F22.9°C 36.0°F2.2°C 26% 2.0 mph ESE3.2 kmh ESE 4.0 mph6.4 kmh 30.27 in1025.1 mb 0.00 in0.0 mm 0.00 in0.0 mm 0.00 in0.0 mm
05:55 PM 72.4°F22.4°C 34.2°F1.2°C 25% 5.1 mph NE8.2 kmh NE 5.6 mph9.0 kmh 30.27 in1025.1 mb 0.00 in0.0 mm 0.00 in0.0 mm 0.00 in0.0 mm
06:01 PM 71.1°F21.7°C 34.1°F1.2°C 26% 3.2 mph E5.1 kmh E 5.6 mph9.0 kmh 30.27 in1025.1 mb 0.00 in0.0 mm 0.00 in0.0 mm 0.00 in0.0 mm
06:06 PM 70.9°F21.6°C 35.0°F1.7°C 27% 2.3 mph E3.7 kmh E 4.5 mph7.2 kmh 30.27 in1025.1 mb 0.00 in0.0 mm 0.00 in0.0 mm 0.00 in0.0 mm
06:11 PM 71.3°F21.8°C 35.3°F1.8°C 27% 0.3 mph ESE0.5 kmh ESE 4.3 mph6.9 kmh 30.27 in1025.1 mb 0.00 in0.0 mm 0.00 in0.0 mm 0.00 in0.0 mm
06:16 PM 71.1°F21.7°C 36.2°F2.3°C 28% 4.3 mph E6.9 kmh E 4.7 mph7.6 kmh 30.27 in1025.1 mb 0.00 in0.0 mm 0.00 in0.0 mm 0.00 in0.0 mm
06:21 PM 70.9°F21.6°C 36.0°F2.2°C 28% 4.9 mph SE7.9 kmh SE 5.6 mph9.0 kmh 30.27 in1025.1 mb 0.00 in0.0 mm 0.00 in0.0 mm 0.00 in0.0 mm
06:26 PM 70.2°F21.2°C 35.4°F1.9°C 28% 4.0 mph SE6.4 kmh SE 5.6 mph9.0 kmh 30.27 in1025.1 mb 0.00 in0.0 mm 0.00 in0.0 mm 0.00 in0.0 mm
06:31 PM 69.7°F20.9°C 34.9°F1.6°C 28% 3.3 mph ESE5.3 kmh ESE 4.5 mph7.2 kmh 30.27 in1025.1 mb 0.00 in0.0 mm 0.00 in0.0 mm 0.00 in0.0 mm
06:36 PM 69.1°F20.6°C 34.5°F1.4°C 28% 2.8 mph ESE4.5 kmh ESE 4.5 mph7.2 kmh 30.27 in1025.1 mb 0.00 in0.0 mm 0.00 in0.0 mm 0.00 in0.0 mm
06:41 PM 68.8°F20.4°C 34.1°F1.2°C 28% 2.2 mph ESE3.5 kmh ESE 4.0 mph6.4 kmh 30.27 in1025.1 mb 0.00 in0.0 mm 0.00 in0.0 mm 0.00 in0.0 mm
06:46 PM 68.6°F20.3°C 33.9°F1.1°C 28% 1.5 mph ESE2.4 kmh ESE 3.4 mph5.5 kmh 30.27 in1025.1 mb 0.00 in0.0 mm 0.00 in0.0 mm 0.00 in0.0 mm
06:51 PM 68.0°F20.0°C 33.5°F0.8°C 28% 1.8 mph SE2.9 kmh SE 3.4 mph5.5 kmh 30.27 in1025.1 mb 0.00 in0.0 mm 0.00 in0.0 mm 0.00 in0.0 mm
06:56 PM 67.1°F19.5°C 33.8°F1.0°C 29% 1.8 mph SE2.9 kmh SE 2.2 mph3.5 kmh 30.27 in1025.1 mb 0.00 in0.0 mm 0.00 in0.0 mm 0.00 in0.0 mm
07:01 PM 66.2°F19.0°C 33.0°F0.6°C 29% 2.3 mph SE3.7 kmh SE 2.7 mph4.3 kmh 30.27 in1025.1 mb 0.00 in0.0 mm 0.00 in0.0 mm 0.00 in0.0 mm
07:06 PM 65.0°F18.3°C 32.9°F0.5°C 30% 2.3 mph SE3.7 kmh SE 2.7 mph4.3 kmh 30.27 in1025.1 mb 0.00 in0.0 mm 0.00 in0.0 mm 0.00 in0.0 mm
07:11 PM 63.9°F17.7°C 31.0°F-0.6°C 29% 1.4 mph SE2.3 kmh SE 2.5 mph4.0 kmh 30.27 in1025.1 mb 0.00 in0.0 mm 0.00 in0.0 mm 0.00 in0.0 mm
07:16 PM 63.2°F17.3°C 31.2°F-0.4°C 30% 2.2 mph ESE3.5 kmh ESE 2.5 mph4.0 kmh 30.27 in1025.1 mb 0.00 in0.0 mm 0.00 in0.0 mm 0.00 in0.0 mm
07:21 PM 62.3°F16.8°C 30.4°F-0.9°C 30% 2.7 mph E4.3 kmh E 3.1 mph5.0 kmh 30.27 in1025.1 mb 0.00 in0.0 mm 0.00 in0.0 mm 0.00 in0.0 mm
07:26 PM 61.6°F16.4°C 30.5°F-0.8°C 31% 1.6 mph E2.6 kmh E 3.1 mph5.0 kmh 30.27 in1025.1 mb 0.00 in0.0 mm 0.00 in0.0 mm 0.00 in0.0 mm
07:31 PM 60.8°F16.0°C 29.9°F-1.2°C 31% 1.7 mph E2.7 kmh E 2.5 mph4.0 kmh 30.27 in1025.1 mb 0.00 in0.0 mm 0.00 in0.0 mm 0.00 in0.0 mm
07:36 PM 60.3°F15.7°C 30.2°F-1.0°C 32% 1.5 mph E2.4 kmh E 2.5 mph4.0 kmh 30.28 in1025.4 mb 0.00 in0.0 mm 0.00 in0.0 mm 0.00 in0.0 mm
07:41 PM 59.8°F15.4°C 29.7°F-1.3°C 32% 1.7 mph E2.7 kmh E 2.0 mph3.2 kmh 30.28 in1025.4 mb 0.00 in0.0 mm 0.00 in0.0 mm 0.00 in0.0 mm
07:46 PM 58.7°F14.8°C 28.8°F-1.8°C 32% 0.6 mph E1.0 kmh E 2.0 mph3.2 kmh 30.28 in1025.4 mb 0.00 in0.0 mm 0.00 in0.0 mm 0.00 in0.0 mm
07:51 PM 57.6°F14.2°C 28.5°F-1.9°C 33% Calm Calm 1.3 mph2.1 kmh 30.28 in1025.4 mb 0.00 in0.0 mm 0.00 in0.0 mm 0.00 in0.0 mm
07:56 PM 57.2°F14.0°C 28.2°F-2.1°C 33% Calm Calm 0.4 mph0.6 kmh 30.28 in1025.4 mb 0.00 in0.0 mm 0.00 in0.0 mm 0.00 in0.0 mm
08:02 PM 56.9°F13.8°C 28.6°F-1.9°C 34% Calm Calm -- 30.28 in1025.4 mb 0.00 in0.0 mm 0.00 in0.0 mm 0.00 in0.0 mm
08:06 PM 56.5°F13.6°C 28.3°F-2.1°C 34% Calm Calm -- 30.28 in1025.4 mb 0.00 in0.0 mm 0.00 in0.0 mm 0.00 in0.0 mm
08:11 PM 55.8°F13.2°C 27.6°F-2.4°C 34% Calm Calm 0.2 mph0.3 kmh 30.28 in1025.4 mb 0.00 in0.0 mm 0.00 in0.0 mm 0.00 in0.0 mm
08:16 PM 55.1°F12.8°C 27.7°F-2.4°C 35% 1.3 mph N2.1 kmh N 1.8 mph2.9 kmh 30.28 in1025.4 mb 0.00 in0.0 mm 0.00 in0.0 mm 0.00 in0.0 mm
08:21 PM 54.2°F12.3°C 27.6°F-2.4°C 36% 2.8 mph 4.5 kmh 3.1 mph5.0 kmh 30.28 in1025.4 mb 0.00 in0.0 mm 0.00 in0.0 mm 0.00 in0.0 mm
08:26 PM 53.5°F11.9°C 27.6°F-2.4°C 37% 1.4 mph N2.3 kmh N 3.1 mph5.0 kmh 30.28 in1025.4 mb 0.00 in0.0 mm 0.00 in0.0 mm 0.00 in0.0 mm
08:31 PM 52.9°F11.6°C 27.2°F-2.7°C 37% 3.3 mph 5.3 kmh 3.8 mph6.1 kmh 30.28 in1025.4 mb 0.00 in0.0 mm 0.00 in0.0 mm 0.00 in0.0 mm
08:36 PM 52.0°F11.1°C 26.4°F-3.1°C 37% 4.7 mph 7.6 kmh 4.7 mph7.6 kmh 30.29 in1025.7 mb 0.00 in0.0 mm 0.00 in0.0 mm 0.00 in0.0 mm
08:41 PM 50.6°F10.3°C 25.7°F-3.5°C 38% 3.7 mph 6.0 kmh 4.9 mph7.9 kmh 30.29 in1025.7 mb 0.00 in0.0 mm 0.00 in0.0 mm 0.00 in0.0 mm
08:46 PM 49.7°F9.8°C 24.9°F-3.9°C 38% 2.3 mph 3.7 kmh 4.9 mph7.9 kmh 30.29 in1025.7 mb 0.00 in0.0 mm 0.00 in0.0 mm 0.00 in0.0 mm
08:51 PM 49.3°F9.6°C 25.3°F-3.7°C 39% 4.6 mph 7.4 kmh 4.9 mph7.9 kmh 30.29 in1025.7 mb 0.00 in0.0 mm 0.00 in0.0 mm 0.00 in0.0 mm
08:56 PM 49.0°F9.4°C 25.7°F-3.5°C 40% 4.7 mph 7.6 kmh 4.9 mph7.9 kmh 30.29 in1025.7 mb 0.00 in0.0 mm 0.00 in0.0 mm 0.00 in0.0 mm
09:02 PM 48.6°F9.2°C 25.9°F-3.4°C 41% 2.6 mph NNW4.2 kmh NNW 4.9 mph7.9 kmh 30.29 in1025.7 mb 0.00 in0.0 mm 0.00 in0.0 mm 0.00 in0.0 mm
09:07 PM 48.4°F9.1°C 25.8°F-3.4°C 41% 3.2 mph 5.1 kmh 3.4 mph5.5 kmh 30.29 in1025.7 mb 0.00 in0.0 mm 0.00 in0.0 mm 0.00 in0.0 mm
09:12 PM 47.9°F8.8°C 25.7°F-3.5°C 42% 4.9 mph N7.9 kmh N 5.4 mph8.7 kmh 30.29 in1025.7 mb 0.00 in0.0 mm 0.00 in0.0 mm 0.00 in0.0 mm
09:17 PM 47.5°F8.6°C 25.5°F-3.6°C 42% 0.7 mph NNE1.1 kmh NNE 5.4 mph8.7 kmh 30.29 in1025.7 mb 0.00 in0.0 mm 0.00 in0.0 mm 0.00 in0.0 mm
09:22 PM 47.2°F8.4°C 25.1°F-3.8°C 42% 1.2 mph 1.9 kmh 2.5 mph4.0 kmh 30.29 in1025.7 mb 0.00 in0.0 mm 0.00 in0.0 mm 0.00 in0.0 mm
09:27 PM 47.0°F8.3°C 25.5°F-3.6°C 43% 1.1 mph N1.8 kmh N 1.3 mph2.1 kmh 30.29 in1025.7 mb 0.00 in0.0 mm 0.00 in0.0 mm 0.00 in0.0 mm
09:32 PM 46.3°F7.9°C 24.8°F-4.0°C 43% 2.1 mph NW3.4 kmh NW 2.9 mph4.7 kmh 30.29 in1025.7 mb 0.00 in0.0 mm 0.00 in0.0 mm 0.00 in0.0 mm
09:37 PM 45.2°F7.3°C 23.9°F-4.5°C 43% 1.8 mph NNW2.9 kmh NNW 2.9 mph4.7 kmh 30.29 in1025.7 mb 0.00 in0.0 mm 0.00 in0.0 mm 0.00 in0.0 mm
09:41 PM 44.6°F7.0°C 23.4°F-4.8°C 43% 4.2 mph 6.8 kmh 5.8 mph9.3 kmh 30.29 in1025.7 mb 0.00 in0.0 mm 0.00 in0.0 mm 0.00 in0.0 mm
09:46 PM 44.3°F6.8°C 24.1°F-4.4°C 45% 3.6 mph 5.8 kmh 5.8 mph9.3 kmh 30.29 in1025.7 mb 0.00 in0.0 mm 0.00 in0.0 mm 0.00 in0.0 mm
09:51 PM 44.1°F6.7°C 25.1°F-3.8°C 47% 5.1 mph NE8.2 kmh NE 6.5 mph10.5 kmh 30.30 in1026.1 mb 0.00 in0.0 mm 0.00 in0.0 mm 0.00 in0.0 mm
09:56 PM 43.9°F6.6°C 24.9°F-3.9°C 47% 3.5 mph NNE5.6 kmh NNE 6.5 mph10.5 kmh 30.30 in1026.1 mb 0.00 in0.0 mm 0.00 in0.0 mm 0.00 in0.0 mm
10:02 PM 43.6°F6.4°C 25.1°F-3.8°C 48% 4.1 mph NE6.6 kmh NE 4.7 mph7.6 kmh 30.30 in1026.1 mb 0.00 in0.0 mm 0.00 in0.0 mm 0.00 in0.0 mm
10:07 PM 43.6°F6.4°C 24.6°F-4.1°C 47% 0.8 mph NNE1.3 kmh NNE 4.7 mph7.6 kmh 30.30 in1026.1 mb 0.00 in0.0 mm 0.00 in0.0 mm 0.00 in0.0 mm
10:12 PM 43.0°F6.1°C 24.1°F-4.4°C 47% 1.2 mph 1.9 kmh 1.6 mph2.6 kmh 30.30 in1026.1 mb 0.00 in0.0 mm 0.00 in0.0 mm 0.00 in0.0 mm
10:17 PM 42.8°F6.0°C 24.5°F-4.2°C 48% 1.5 mph 2.4 kmh 1.8 mph2.9 kmh 30.30 in1026.1 mb 0.00 in0.0 mm 0.00 in0.0 mm 0.00 in0.0 mm
10:22 PM 42.7°F5.9°C 23.8°F-4.6°C 47% 0.8 mph NNE1.3 kmh NNE 1.8 mph2.9 kmh 30.30 in1026.1 mb 0.00 in0.0 mm 0.00 in0.0 mm 0.00 in0.0 mm
10:27 PM 42.3°F5.7°C 23.9°F-4.5°C 48% Calm Calm 1.8 mph2.9 kmh 30.30 in1026.1 mb 0.00 in0.0 mm 0.00 in0.0 mm 0.00 in0.0 mm
10:32 PM 42.1°F5.6°C 23.8°F-4.6°C 48% Calm Calm -- 30.30 in1026.1 mb 0.00 in0.0 mm 0.00 in0.0 mm 0.00 in0.0 mm
10:37 PM 41.8°F5.4°C 23.4°F-4.8°C 48% 1.4 mph 2.3 kmh 1.6 mph2.6 kmh 30.30 in1026.1 mb 0.00 in0.0 mm 0.00 in0.0 mm 0.00 in0.0 mm
10:42 PM 41.0°F5.0°C 22.7°F-5.2°C 48% 1.7 mph NNE2.7 kmh NNE 2.5 mph4.0 kmh 30.30 in1026.1 mb 0.00 in0.0 mm 0.00 in0.0 mm 0.00 in0.0 mm
10:47 PM 40.7°F4.8°C 23.0°F-5.0°C 49% 0.6 mph 1.0 kmh 2.5 mph4.0 kmh 30.30 in1026.1 mb 0.00 in0.0 mm 0.00 in0.0 mm 0.00 in0.0 mm
10:52 PM 40.3°F4.6°C 22.6°F-5.2°C 49% 0.9 mph 1.4 kmh 2.7 mph4.3 kmh 30.30 in1026.1 mb 0.00 in0.0 mm 0.00 in0.0 mm 0.00 in0.0 mm
10:57 PM 40.0°F4.4°C 22.2°F-5.4°C 49% 2.0 mph 3.2 kmh 3.4 mph5.5 kmh 30.30 in1026.1 mb 0.00 in0.0 mm 0.00 in0.0 mm 0.00 in0.0 mm
11:02 PM 39.6°F4.2°C 22.0°F-5.6°C 49% 1.5 mph 2.4 kmh 3.4 mph5.5 kmh 30.30 in1026.1 mb 0.00 in0.0 mm 0.00 in0.0 mm 0.00 in0.0 mm
11:07 PM 39.6°F4.2°C 22.0°F-5.6°C 49% 1.8 mph 2.9 kmh 3.4 mph5.5 kmh 30.30 in1026.1 mb 0.00 in0.0 mm 0.00 in0.0 mm 0.00 in0.0 mm
11:12 PM 40.0°F4.4°C 23.7°F-4.6°C 52% 4.4 mph NNE7.1 kmh NNE 5.8 mph9.3 kmh 30.30 in1026.1 mb 0.00 in0.0 mm 0.00 in0.0 mm 0.00 in0.0 mm
11:17 PM 40.3°F4.6°C 24.0°F-4.4°C 52% 0.6 mph NE1.0 kmh NE 5.8 mph9.3 kmh 30.30 in1026.1 mb 0.00 in0.0 mm 0.00 in0.0 mm 0.00 in0.0 mm
11:22 PM 40.5°F4.7°C 24.1°F-4.4°C 52% 0.8 mph N1.3 kmh N 2.2 mph3.5 kmh 30.30 in1026.1 mb 0.00 in0.0 mm 0.00 in0.0 mm 0.00 in0.0 mm
11:27 PM 40.5°F4.7°C 24.1°F-4.4°C 52% 0.7 mph NNE1.1 kmh NNE 2.2 mph3.5 kmh 30.30 in1026.1 mb 0.00 in0.0 mm 0.00 in0.0 mm 0.00 in0.0 mm
11:32 PM 40.3°F4.6°C 23.6°F-4.7°C 51% 0.2 mph NE0.3 kmh NE 1.6 mph2.6 kmh 30.30 in1026.1 mb 0.00 in0.0 mm 0.00 in0.0 mm 0.00 in0.0 mm
11:37 PM 39.6°F4.2°C 22.9°F-5.1°C 51% 0.9 mph NNE1.4 kmh NNE 0.9 mph1.4 kmh 30.30 in1026.1 mb 0.00 in0.0 mm 0.00 in0.0 mm 0.00 in0.0 mm
11:42 PM 39.1°F3.9°C 23.3°F-4.8°C 53% 4.3 mph ENE6.9 kmh ENE 4.3 mph6.9 kmh 30.30 in1026.1 mb 0.00 in0.0 mm 0.00 in0.0 mm 0.00 in0.0 mm
11:47 PM 38.9°F3.8°C 23.9°F-4.5°C 55% 3.0 mph ENE4.8 kmh ENE 4.7 mph7.6 kmh 30.30 in1026.1 mb 0.00 in0.0 mm 0.00 in0.0 mm 0.00 in0.0 mm
11:52 PM 38.3°F3.5°C 23.0°F-5.0°C 54% 1.8 mph E2.9 kmh E 4.7 mph7.6 kmh 30.30 in1026.1 mb 0.00 in0.0 mm 0.00 in0.0 mm 0.00 in0.0 mm
11:57 PM 37.8°F3.2°C 22.6°F-5.2°C 54% 1.1 mph E1.8 kmh E 2.7 mph4.3 kmh 30.30 in1026.1 mb 0.00 in0.0 mm 0.00 in0.0 mm 0.00 in0.0 mm